This is the latest recevied weather packets stored in our database for station/object SP1BMW-13. If no packets are shown the sender has not sent any weather packets the latest 1 day(s).
| Time | Temp. | Humidity | Pressure | Rain* | Wind** | Luminosity | Snow |
|---|---|---|---|---|---|---|---|
| 1778081392 | 10.56° C | 88% | 1006.4 hPa | 0 mm | 1.34 m/s, 16° | 117 W/m² | - |
| 1778081212 | 10.56° C | 88% | 1006.5 hPa | 0 mm | 0.45 m/s, 299° | 105 W/m² | - |
| 1778081152 | 10.56° C | 88% | 1006.5 hPa | 0 mm | 0.89 m/s, 42° | 109 W/m² | - |
| 1778081092 | 10.56° C | 88% | 1006.7 hPa | 0 mm | 0.45 m/s, 317° | 112 W/m² | - |
| 1778080912 | 10.56° C | 87% | 1006.6 hPa | 0 mm | 0 m/s | 123 W/m² | - |
| 1778080792 | 10.56° C | 89% | 1006.7 hPa | 0 mm | 0.45 m/s, 26° | 127 W/m² | - |
| 1778080492 | 10.56° C | 88% | 1006.7 hPa | 0 mm | 0.89 m/s, 19° | 130 W/m² | - |
| 1778080312 | 10.56° C | 88% | 1006.5 hPa | 0 mm | 1.79 m/s, 317° | 99 W/m² | - |
| 1778080192 | 10.56° C | 88% | 1006.5 hPa | 0 mm | 1.79 m/s, 317° | 99 W/m² | - |
| 1778080072 | 10.56° C | 88% | 1006.7 hPa | 0 mm | 1.79 m/s, 337° | 113 W/m² | - |
| 1778080012 | 10.56° C | 88% | 1006.5 hPa | 0 mm | 1.79 m/s, 337° | 113 W/m² | - |
| 1778079892 | 10.56° C | 89% | 1006.6 hPa | 0 mm | 0.45 m/s, 339° | 136 W/m² | - |
| 1778079832 | 10.56° C | 89% | 1006.4 hPa | 0 mm | 0.45 m/s, 339° | 136 W/m² | - |
| 1778079773 | 10.56° C | 90% | 1006.6 hPa | 0 mm | 0.45 m/s, 49° | 159 W/m² | - |
| 1778079712 | 10.56° C | 90% | 1006.5 hPa | 0 mm | 0.45 m/s, 49° | 159 W/m² | - |
| 1778079472 | 10.56° C | 89% | 1006.4 hPa | 0 mm | 0.89 m/s, 7° | 166 W/m² | - |
| 1778079412 | 10.56° C | 89% | 1006.4 hPa | 0 mm | 0.89 m/s, 7° | 166 W/m² | - |
| 1778079172 | 10.56° C | 89% | 1006.5 hPa | 0 mm | 0.89 m/s, 25° | 162 W/m² | - |
| 1778078992 | 10.56° C | 89% | 1006.7 hPa | 0 mm | 1.79 m/s, 305° | 97 W/m² | - |
| 1778078932 | 10.56° C | 89% | 1006.5 hPa | 0 mm | 1.34 m/s, 29° | 103 W/m² | - |
| 1778078872 | 10.56° C | 89% | 1006.5 hPa | 0 mm | 1.34 m/s, 29° | 103 W/m² | - |
| 1778078814 | 10.56° C | 90% | 1006.6 hPa | 0 mm | 0.45 m/s, 344° | 117 W/m² | - |
| 1778078692 | 10.56° C | 89% | 1006.5 hPa | 0 mm | 0.89 m/s, 34° | 112 W/m² | - |
| 1778078632 | 10.56° C | 89% | 1006.6 hPa | 0 mm | 0.89 m/s, 34° | 112 W/m² | - |
| 1778078512 | 10.56° C | 90% | 1006.4 hPa | 0 mm | 0.45 m/s, 66° | 127 W/m² | - |
* Rain latest hour (hover to see other rain measurements)
** Current wind speed in m/s (hover to see current wind gust speed)